Time;durP1;ratioP1;P1;durP2;ratioP2;P2;SDS_P1;SDS_P2;PMS_P1;PMS_P2;Temp;Humidity;BMP_temperature;BMP_pressure;BME280_temperature;BME280_humidity;BME280_pressure;Samples;Min_cycle;Max_cycle;Signal;HPM_P1;HPM_P2
2022/01/23 00:00:46;;;;;;;12.50;9.23;;;;;;;-3.35;76.66;100138.47;1670918;84;21054;-64
2022/01/23 00:03:18;;;;;;;12.78;9.20;;;;;;;-3.38;76.71;100130.02;1670144;84;21033;-64
2022/01/23 00:05:47;;;;;;;11.37;8.43;;;;;;;-3.26;76.77;100142.69;1676549;84;21038;-64
2022/01/23 00:08:18;;;;;;;12.50;8.67;;;;;;;-3.20;76.77;100144.86;1643592;85;21045;-63
2022/01/23 00:10:44;;;;;;;10.83;7.90;;;;;;;-3.14;76.63;100147.91;1642027;86;21026;-63
2022/01/23 00:13:32;;;;;;;10.93;8.25;;;;;;;-3.10;76.64;100147.22;1643769;86;21122;-63
2022/01/23 00:18:41;;;;;;;14.20;8.83;;;;;;;-3.08;76.17;100147.95;1631344;86;21130;-64
2022/01/23 00:21:07;;;;;;;19.48;9.35;;;;;;;-3.04;76.26;100151.19;1629995;86;21046;-64
2022/01/23 00:30:19;;;;;;;12.88;8.35;;;;;;;-2.98;76.34;100155.48;1626241;86;20982;-63
2022/01/23 00:31:35;;;;;;;13.67;10.13;;;;;;;-2.83;76.12;100157.51;1673388;84;21033;-64
2022/01/23 00:34:01;;;;;;;16.37;10.30;;;;;;;-2.81;76.14;100154.32;1674038;84;21038;-64
2022/01/23 00:36:29;;;;;;;9.90;8.13;;;;;;;-2.81;75.87;100166.06;1672332;84;21018;-64
2022/01/23 00:38:57;;;;;;;10.53;7.87;;;;;;;-2.83;75.81;100164.52;1635868;86;21075;-64
2022/01/23 00:41:24;;;;;;;10.90;9.00;;;;;;;-2.87;75.89;100161.28;1659837;84;21510;-63
2022/01/23 00:43:53;;;;;;;13.03;9.43;;;;;;;-2.90;75.91;100160.66;1660034;84;21078;-66
2022/01/23 00:49:23;;;;;;;10.80;7.97;;;;;;;-2.95;76.34;100163.12;1644627;86;21031;-63
2022/01/23 00:51:19;;;;;;;15.00;9.37;;;;;;;-2.96;76.17;100156.25;1636093;86;21078;-63
2022/01/23 00:53:46;;;;;;;11.20;9.60;;;;;;;-3.01;76.13;100164.02;1645100;86;21507;-65
2022/01/23 00:56:12;;;;;;;11.70;8.98;;;;;;;-3.45;76.20;100095.71;1643315;85;20979;-64
2022/01/23 00:58:38;;;;;;;9.85;8.45;;;;;;;-3.01;76.35;100149.20;1644656;86;21066;-64
2022/01/23 01:01:04;;;;;;;15.70;8.78;;;;;;;-3.01;76.35;100149.20;1640496;86;21038;-64
2022/01/23 01:03:30;;;;;;;18.35;10.40;;;;;;;-2.95;76.54;100150.55;1636634;86;21458;-63
2022/01/23 01:05:56;;;;;;;12.73;9.28;;;;;;;-2.94;76.33;100147.84;1643072;86;21105;-64
2022/01/23 01:08:22;;;;;;;12.07;9.90;;;;;;;-2.92;76.02;100149.49;1640443;86;20990;-63
2022/01/23 01:13:17;;;;;;;12.53;8.90;;;;;;;-2.86;76.25;100151.67;1620696;87;21094;-63
2022/01/23 01:16:35;;;;;;;12.87;9.63;;;;;;;-2.84;76.19;100152.42;1642170;86;21054;-63
2022/01/23 01:32:25;;;;;;;13.53;8.93;;;;;;;-2.86;76.39;100161.66;1643120;86;21030;-64
2022/01/23 01:34:50;;;;;;;11.20;9.30;;;;;;;-2.83;76.40;100159.30;1647001;85;20995;-63
2022/01/23 01:37:12;;;;;;;12.47;9.37;;;;;;;-2.84;76.20;100160.25;1645112;86;21066;-64
2022/01/23 01:39:38;;;;;;;10.93;9.17;;;;;;;-2.92;76.22;100159.45;1644263;86;21531;-64
2022/01/23 01:42:07;;;;;;;14.17;8.97;;;;;;;-2.97;76.52;100162.39;1643445;86;21554;-63
2022/01/23 01:44:34;;;;;;;11.77;10.00;;;;;;;-3.01;76.64;100165.33;1630104;86;21006;-63
2022/01/23 01:47:15;;;;;;;13.33;9.53;;;;;;;-3.03;76.96;100171.95;1631289;86;21510;-64
2022/01/23 01:49:43;;;;;;;14.03;10.73;;;;;;;-3.02;77.17;100173.59;1635056;86;21058;-63
2022/01/23 01:52:10;;;;;;;13.13;10.07;;;;;;;-3.00;77.27;100167.80;1664818;84;21066;-64
2022/01/23 01:54:38;;;;;;;13.30;9.57;;;;;;;-2.97;77.29;100172.00;1668548;84;21057;-63
2022/01/23 01:57:13;;;;;;;12.07;9.70;;;;;;;-2.93;77.49;100177.36;1668238;82;21105;-63
2022/01/23 02:03:20;;;;;;;9.18;7.50;;;;;;;-2.89;77.60;100178.81;1647723;85;21044;-63
2022/01/23 02:08:34;;;;;;;12.53;9.23;;;;;;;-2.91;77.77;100186.39;1664971;84;21105;-63
2022/01/23 02:10:11;;;;;;;13.18;10.15;;;;;;;-2.95;77.95;100189.67;1644509;84;20987;-63
2022/01/23 02:15:27;;;;;;;14.07;11.07;;;;;;;-2.99;78.40;100189.05;1635488;86;21043;-64
2022/01/23 02:23:27;;;;;;;14.15;10.40;;;;;;;-2.97;78.73;100187.16;1669612;84;21494;-63
2022/01/23 02:50:46;;;;;;;30.87;21.00;;;;;;;-2.69;78.22;100224.41;1672457;84;21609;-63
2022/01/23 02:53:34;;;;;;;23.63;15.53;;;;;;;-2.74;78.20;100235.62;1680225;84;21062;-64
2022/01/23 02:55:48;;;;;;;19.93;13.37;;;;;;;-2.79;78.39;100231.17;1665667;84;20971;-62
2022/01/23 02:58:21;;;;;;;25.40;15.23;;;;;;;-2.83;78.45;100242.77;1669165;84;21081;-63
2022/01/23 03:03:56;;;;;;;19.43;13.03;;;;;;;-2.83;79.05;100241.47;1680304;84;21449;-65
2022/01/23 03:06:39;;;;;;;18.10;12.43;;;;;;;-2.81;78.81;100250.02;1675192;84;21175;-63
2022/01/23 03:14:01;;;;;;;21.33;13.73;;;;;;;-2.82;78.72;100245.28;1660892;85;21806;-62
2022/01/23 03:29:40;;;;;;;10.50;8.10;;;;;;;-2.81;78.44;100265.67;1684074;85;21433;-63
2022/01/23 03:34:25;;;;;;;14.45;9.88;;;;;;;-2.87;78.20;100277.36;1678139;84;21476;-62
2022/01/23 03:36:54;;;;;;;11.97;8.37;;;;;;;-2.88;78.11;100281.36;1639489;86;20980;-63
2022/01/23 03:39:21;;;;;;;11.70;7.33;;;;;;;-2.87;78.05;100290.39;1626982;86;21038;-63
2022/01/23 03:41:48;;;;;;;10.83;7.17;;;;;;;-2.86;78.07;100292.08;1620856;87;21007;-63
2022/01/23 03:44:16;;;;;;;10.05;8.35;;;;;;;-2.89;77.72;100297.97;1667156;84;21460;-62
2022/01/23 03:49:32;;;;;;;15.43;8.23;;;;;;;-3.00;77.84;100319.06;1614923;87;21063;-64
2022/01/23 03:52:08;;;;;;;13.27;10.07;;;;;;;-3.07;77.86;100313.05;1642084;86;21050;-63
2022/01/23 03:54:38;;;;;;;13.50;9.17;;;;;;;-3.17;78.00;100316.27;1591890;88;21014;-63
2022/01/23 03:57:06;;;;;;;12.77;8.90;;;;;;;-3.27;78.03;100316.52;1644118;86;21049;-63
2022/01/23 03:59:35;;;;;;;12.57;9.33;;;;;;;-3.32;78.33;100329.83;1648925;84;21049;-62
2022/01/23 04:02:04;;;;;;;10.87;6.63;;;;;;;-3.34;78.48;100326.97;1632840;86;21014;-63
2022/01/23 04:04:51;;;;;;;14.73;9.03;;;;;;;-3.38;78.43;100338.05;1623038;86;21063;-64
2022/01/23 04:07:25;;;;;;;11.00;7.80;;;;;;;-3.42;78.31;100344.88;1604294;88;21088;-63
2022/01/23 04:09:51;;;;;;;11.43;7.70;;;;;;;-3.50;78.08;100340.16;1620250;87;21132;-62
2022/01/23 04:12:46;;;;;;;11.43;8.57;;;;;;;-3.55;78.09;100348.25;1633301;85;21037;-65
2022/01/23 04:20:49;;;;;;;9.40;7.23;;;;;;;-3.45;77.58;100354.19;1815219;77;20993;-64
2022/01/23 04:48:49;;;;;;;7.50;5.37;;;;;;;-3.89;78.03;100405.53;1774343;78;21091;-65
2022/01/23 05:01:40;;;;;;;9.40;8.33;;;;;;;-4.04;76.74;100436.41;1771079;79;21508;-64
2022/01/23 05:07:07;;;;;;;15.47;9.43;;;;;;;-4.17;77.06;100437.14;1762308;80;21069;-64
2022/01/23 05:09:34;;;;;;;10.57;7.47;;;;;;;-4.16;77.05;100457.05;1746379;80;21018;-64
2022/01/23 05:12:09;;;;;;;15.20;9.80;;;;;;;-4.14;77.23;100452.59;1741806;80;21020;-65
2022/01/23 05:14:44;;;;;;;10.37;7.63;;;;;;;-4.15;76.28;100460.48;1685906;83;21016;-65
2022/01/23 05:17:13;;;;;;;13.30;8.07;;;;;;;-4.23;76.07;100464.84;1730287;81;21056;-65
2022/01/23 05:19:41;;;;;;;13.37;8.33;;;;;;;-4.31;75.90;100476.17;1699659;82;21481;-65
2022/01/23 05:24:45;;;;;;;15.07;9.93;;;;;;;-4.55;75.82;100468.84;1719683;81;21562;-65
2022/01/23 05:27:10;;;;;;;12.40;9.63;;;;;;;-4.59;75.93;100484.27;1706652;82;21029;-65
2022/01/23 05:29:37;;;;;;;14.60;8.60;;;;;;;-4.63;76.05;100487.97;1724220;81;21034;-66
2022/01/23 05:32:09;;;;;;;12.03;8.30;;;;;;;-4.62;76.50;100494.00;1712577;82;21084;-66
2022/01/23 05:34:38;;;;;;;14.80;9.43;;;;;;;-4.57;76.31;100496.72;1724114;81;21029;-66
2022/01/23 05:37:12;;;;;;;13.30;9.57;;;;;;;-4.56;76.24;100501.01;1724327;81;21101;-65
2022/01/23 05:39:40;;;;;;;14.23;9.83;;;;;;;-4.53;76.27;100499.98;1720592;82;21070;-64
2022/01/23 05:42:09;;;;;;;14.28;9.60;;;;;;;-4.50;76.35;100505.02;1700192;82;21550;-64
2022/01/23 05:44:40;;;;;;;17.60;10.30;;;;;;;-4.43;76.35;100514.13;1734560;80;21474;-64
2022/01/23 05:47:10;;;;;;;17.07;11.23;;;;;;;-4.42;75.92;100521.02;1706389;82;21080;-64
2022/01/23 05:49:44;;;;;;;16.35;10.13;;;;;;;-4.44;75.95;100524.18;1722989;81;21050;-65
2022/01/23 05:52:13;;;;;;;15.40;10.30;;;;;;;-4.44;75.96;100528.55;1720658;81;21133;-66
2022/01/23 05:54:43;;;;;;;15.70;10.83;;;;;;;-4.44;76.00;100528.55;1712401;81;21576;-65
2022/01/23 05:57:18;;;;;;;16.37;10.50;;;;;;;-4.43;76.03;100532.34;1718739;81;21012;-65
2022/01/23 05:59:46;;;;;;;19.23;11.43;;;;;;;-4.48;75.57;100542.64;1693285;83;21099;-66
2022/01/23 06:02:12;;;;;;;19.55;11.00;;;;;;;-4.54;75.73;100547.73;1702091;83;20992;-65
2022/01/23 06:04:39;;;;;;;15.03;9.83;;;;;;;-4.57;75.96;100552.65;1726257;81;21041;-64
2022/01/23 06:07:07;;;;;;;17.83;10.90;;;;;;;-4.59;75.90;100562.31;1719850;81;21120;-61
2022/01/23 06:09:40;;;;;;;19.70;11.30;;;;;;;-4.63;75.65;100565.14;1705771;83;21571;-62
2022/01/23 06:12:04;;;;;;;18.83;12.33;;;;;;;-4.67;75.86;100565.80;1691798;82;20970;-60
2022/01/23 06:14:30;;;;;;;18.50;10.77;;;;;;;-4.66;76.05;100572.67;1690613;83;21032;-61
2022/01/23 06:16:56;;;;;;;18.25;11.97;;;;;;;-4.64;76.33;100579.92;1688136;83;21033;-62
2022/01/23 06:19:41;;;;;;;16.60;10.87;;;;;;;-4.68;76.13;100578.89;1689408;83;21066;-61
2022/01/23 06:22:25;;;;;;;17.10;11.07;;;;;;;-4.71;76.33;100590.28;1701740;82;21011;-63
2022/01/23 06:24:59;;;;;;;16.63;11.57;;;;;;;-4.69;76.40;100596.23;1775099;80;21109;-61
2022/01/23 06:27:29;;;;;;;13.70;10.50;;;;;;;-4.69;76.25;100602.73;1744693;81;21580;-63
2022/01/23 06:29:55;;;;;;;18.73;12.30;;;;;;;-4.70;76.56;100607.58;1728959;81;21608;-62
2022/01/23 06:32:22;;;;;;;15.70;9.08;;;;;;;-5.06;76.62;100540.23;1724382;81;21338;-62
2022/01/23 06:34:48;;;;;;;18.20;11.05;;;;;;;-4.60;76.76;100610.52;1768752;79;20982;-61
2022/01/23 06:37:14;;;;;;;16.73;10.48;;;;;;;-4.58;76.56;100612.56;1739225;81;21039;-62
2022/01/23 06:39:40;;;;;;;17.52;11.68;;;;;;;-4.58;76.55;100614.69;1748177;80;21012;-63
2022/01/23 06:42:09;;;;;;;16.97;11.40;;;;;;;-4.57;76.65;100618.16;1744122;82;20986;-62
2022/01/23 06:44:38;;;;;;;15.63;10.97;;;;;;;-4.55;76.58;100624.11;1762604;80;22162;-62
2022/01/23 06:47:06;;;;;;;17.70;11.50;;;;;;;-4.54;76.46;100634.44;1760204;80;21074;-61
2022/01/23 06:49:33;;;;;;;19.43;11.63;;;;;;;-4.52;76.28;100633.89;1754659;80;21046;-64
2022/01/23 06:51:59;;;;;;;;;;;;;;;-4.49;76.19;100639.38;1765721;80;21040;-62
2022/01/23 06:54:27;;;;;;;14.40;10.37;;;;;;;-4.46;76.13;100643.56;1760830;80;20137;-63
2022/01/23 06:56:56;;;;;;;15.03;9.97;;;;;;;-4.52;75.88;100643.00;1728730;82;21081;-61
2022/01/23 06:59:23;;;;;;;14.07;11.35;;;;;;;-4.48;76.15;100639.77;1727241;82;21549;-60
2022/01/23 07:01:52;;;;;;;13.37;10.60;;;;;;;-4.45;75.67;100649.16;1734109;81;21019;-61
2022/01/23 07:04:20;;;;;;;17.30;9.97;;;;;;;-4.50;75.76;100663.27;1729853;82;21030;-63
2022/01/23 07:06:51;;;;;;;18.80;11.50;;;;;;;-4.51;75.97;100664.17;1762473;80;21502;-61
2022/01/23 07:09:35;;;;;;;20.37;12.90;;;;;;;-4.53;76.04;100669.92;1764273;81;20998;-60
2022/01/23 07:12:19;;;;;;;19.27;12.17;;;;;;;-4.59;76.19;100683.27;1760334;80;21045;-63
2022/01/23 07:15:03;;;;;;;18.93;11.17;;;;;;;-4.61;76.49;100681.69;1741942;82;21043;-65
2022/01/23 07:17:48;;;;;;;19.57;11.17;;;;;;;-4.58;76.76;100682.33;1748396;80;21025;-63
2022/01/23 07:20:22;;;;;;;20.83;11.83;;;;;;;-4.56;76.74;100679.66;1747600;81;21027;-62
2022/01/23 07:22:49;;;;;;;17.90;11.83;;;;;;;-4.58;76.54;100688.84;1735423;81;20993;-62
2022/01/23 07:25:16;;;;;;;19.77;13.47;;;;;;;-4.59;76.58;100688.95;1772122;80;21015;-63
2022/01/23 07:27:50;;;;;;;17.47;12.73;;;;;;;-4.59;76.82;100694.98;1718599;82;21122;-64
2022/01/23 07:30:27;;;;;;;18.17;11.97;;;;;;;-4.54;77.01;100704.69;1761999;80;21086;-62
2022/01/23 07:32:48;;;;;;;20.47;14.27;;;;;;;-4.42;77.23;100706.25;1766645;80;21000;-63
2022/01/23 07:35:15;;;;;;;19.10;11.80;;;;;;;-4.32;77.30;100715.22;1764396;80;20971;-62
2022/01/23 07:37:42;;;;;;;;;;;;;;;-4.20;77.19;100718.91;1746571;81;21077;-62
2022/01/23 07:40:25;;;;;;;18.93;11.93;;;;;;;-4.12;76.61;100722.78;1702752;82;20123;-63
2022/01/23 07:42:53;;;;;;;23.87;13.33;;;;;;;-4.09;76.74;100722.23;1709571;82;21521;-62
2022/01/23 07:45:39;;;;;;;20.03;12.33;;;;;;;-4.00;76.76;100725.16;1737330;81;20984;-62
2022/01/23 07:48:13;;;;;;;17.07;11.57;;;;;;;-3.89;76.43;100728.95;1723429;82;21123;-62
2022/01/23 07:50:41;;;;;;;22.37;13.33;;;;;;;-3.83;76.04;100735.94;1750328;80;21662;-63
2022/01/23 07:53:09;;;;;;;26.60;15.07;;;;;;;-3.75;75.66;100747.23;1734460;81;21017;-62
2022/01/23 07:55:40;;;;;;;21.43;14.03;;;;;;;-3.69;75.33;100748.65;1748190;79;20991;-62
2022/01/23 07:58:15;;;;;;;20.93;13.27;;;;;;;-3.63;75.29;100748.33;1775246;79;21010;-62
2022/01/23 08:00:44;;;;;;;18.97;12.97;;;;;;;-3.56;75.12;100753.09;1776209;79;21039;-62
2022/01/23 08:03:11;;;;;;;22.07;13.03;;;;;;;-3.52;74.94;100760.28;1748638;80;21025;-62
2022/01/23 08:05:45;;;;;;;21.30;13.67;;;;;;;-3.53;74.63;100772.45;1723116;82;21092;-62
2022/01/23 08:08:20;;;;;;;20.23;13.47;;;;;;;-3.61;74.27;100775.13;1722757;82;21065;-60
2022/01/23 08:10:48;;;;;;;18.50;12.87;;;;;;;-3.68;74.81;100777.70;1740268;80;20977;-62
2022/01/23 08:13:16;;;;;;;21.27;13.97;;;;;;;-3.63;75.54;100775.21;1781404;79;21075;-61
2022/01/23 08:15:43;;;;;;;19.23;12.43;;;;;;;-3.60;75.13;100782.00;1783636;79;21043;-62
2022/01/23 08:18:09;;;;;;;18.75;14.13;;;;;;;-3.57;75.37;100786.59;1753559;80;21081;-62
2022/01/23 08:20:36;;;;;;;;;;;;;;;-3.56;75.11;100797.84;1704666;82;21130;-61
2022/01/23 08:23:05;;;;;;;17.87;11.40;;;;;;;-3.61;75.49;100799.89;1756602;80;20447;-62
2022/01/23 08:25:33;;;;;;;21.93;12.63;;;;;;;-3.67;75.94;100804.98;1732086;82;21043;-62
2022/01/23 08:27:59;;;;;;;19.17;13.43;;;;;;;-3.63;76.20;100811.69;1739836;81;21007;-61
2022/01/23 08:30:26;;;;;;;18.07;12.93;;;;;;;-3.58;75.92;100816.63;1753546;79;21051;-63
2022/01/23 08:32:52;;;;;;;15.75;12.20;;;;;;;-3.57;76.18;100824.84;1739404;81;21000;-61
2022/01/23 08:35:20;;;;;;;17.02;12.95;;;;;;;-3.56;76.30;100832.58;1762844;80;21260;-62
2022/01/23 08:37:48;;;;;;;20.63;12.63;;;;;;;-3.56;76.26;100832.58;1745375;80;21278;-64
2022/01/23 08:40:23;;;;;;;19.13;12.27;;;;;;;-3.57;76.74;100841.78;1763898;80;21115;-63
2022/01/23 08:42:43;;;;;;;16.83;12.37;;;;;;;-3.48;77.12;100847.78;1724366;81;21078;-64
2022/01/23 08:45:10;;;;;;;18.42;13.22;;;;;;;-3.38;77.16;100849.41;1733865;81;21686;-67
2022/01/23 08:47:36;;;;;;;19.57;13.50;;;;;;;-3.31;76.69;100855.97;1728185;81;21037;-64
2022/01/23 08:50:04;;;;;;;19.10;13.98;;;;;;;-3.22;76.79;100855.45;1730024;81;21049;-63
2022/01/23 08:52:31;;;;;;;19.97;12.43;;;;;;;-3.07;76.80;100850.27;1762604;80;21380;-63
2022/01/23 08:54:57;;;;;;;17.42;12.15;;;;;;;-2.95;76.56;100854.32;1749972;80;21006;-65
2022/01/23 08:57:25;;;;;;;18.85;14.03;;;;;;;-2.82;76.28;100865.36;1787997;79;21013;-65
2022/01/23 08:59:52;;;;;;;29.03;21.77;;;;;;;-2.73;75.85;100857.00;1787465;79;21173;-65
2022/01/23 09:02:19;;;;;;;20.13;16.23;;;;;;;-2.67;75.29;100863.63;1779086;79;21024;-64
2022/01/23 09:04:46;;;;;;;21.00;14.53;;;;;;;-2.66;75.10;100865.29;1779385;79;20998;-63
2022/01/23 09:07:13;;;;;;;20.77;13.90;;;;;;;-2.65;74.94;100869.59;1784306;79;21427;-62
2022/01/23 09:09:41;;;;;;;25.33;16.53;;;;;;;-2.64;75.23;100869.48;1786729;79;21481;-62
2022/01/23 09:14:52;;;;;;;26.30;19.50;;;;;;;-2.56;75.18;100869.05;1791858;79;21504;-65
2022/01/23 09:17:20;;;;;;;16.52;13.32;;;;;;;-2.52;75.24;100873.16;1784433;79;21495;-65
2022/01/23 09:19:49;;;;;;;8.90;7.70;;;;;;;-2.44;75.19;100875.31;1785593;79;21532;-65
2022/01/23 09:22:15;;;;;;;13.00;10.13;;;;;;;-2.37;73.87;100878.77;1794366;79;21053;-64
2022/01/23 09:24:42;;;;;;;14.70;10.77;;;;;;;-2.32;73.73;100877.64;1786835;79;21106;-62
2022/01/23 09:27:18;;;;;;;11.90;8.28;;;;;;;-2.25;73.63;100880.27;1789214;79;21126;-63
2022/01/23 09:29:41;;;;;;;9.03;7.07;;;;;;;-2.15;73.38;100882.68;1784245;79;21030;-62
2022/01/23 09:32:16;;;;;;;14.03;9.87;;;;;;;-2.02;73.23;100884.92;1785199;79;21502;-63
2022/01/23 09:34:44;;;;;;;24.80;16.07;;;;;;;-1.93;72.61;100880.91;1785217;79;21007;-63
2022/01/23 09:37:14;;;;;;;16.93;13.13;;;;;;;-1.90;71.89;100890.33;1785732;79;21059;-62
2022/01/23 09:39:45;;;;;;;15.80;12.33;;;;;;;-1.93;72.08;100894.45;1784063;79;21444;-65
2022/01/23 09:42:22;;;;;;;15.17;11.57;;;;;;;-1.90;72.27;100895.11;1781839;79;21013;-64
2022/01/23 09:44:53;;;;;;;12.68;8.13;;;;;;;-1.82;72.35;100892.02;1772462;79;21527;-64
2022/01/23 09:47:21;;;;;;;10.23;7.77;;;;;;;-1.76;72.01;100891.16;1785724;79;22021;-63
2022/01/23 09:49:52;;;;;;;7.23;5.57;;;;;;;-1.69;72.04;100899.47;1778173;79;21109;-64
2022/01/23 09:52:20;;;;;;;8.13;6.40;;;;;;;-1.60;71.05;100900.65;1783063;79;21022;-63
2022/01/23 09:54:57;;;;;;;7.27;6.13;;;;;;;-1.45;70.86;100895.78;1780640;79;21038;-64
2022/01/23 09:57:23;;;;;;;9.10;8.10;;;;;;;-1.27;70.21;100902.09;1784395;79;21732;-63
2022/01/23 09:59:48;;;;;;;11.23;8.87;;;;;;;-1.16;69.46;100905.33;1781816;79;21065;-62
2022/01/23 10:02:14;;;;;;;8.35;6.47;;;;;;;-1.18;69.91;100904.11;1787043;79;21023;-65
2022/01/23 10:04:42;;;;;;;9.07;7.90;;;;;;;-1.28;69.05;100907.80;1776740;79;21041;-65
2022/01/23 10:07:08;;;;;;;9.68;7.50;;;;;;;-1.39;69.27;100906.33;1780965;79;21077;-64
2022/01/23 10:09:36;;;;;;;9.98;7.55;;;;;;;-1.45;70.17;100902.77;1780211;79;20998;-66
2022/01/23 10:12:06;;;;;;;8.63;6.77;;;;;;;-1.60;69.89;100899.34;1777701;79;20960;-65
2022/01/23 10:14:32;;;;;;;15.10;8.57;;;;;;;-1.71;70.57;100912.23;1789582;79;21125;-65
2022/01/23 10:17:01;;;;;;;10.58;8.08;;;;;;;-1.83;70.52;100912.54;1772777;80;21503;-67
2022/01/23 10:19:27;;;;;;;12.50;9.33;;;;;;;-1.95;70.86;100918.06;1770340;79;21074;-65
2022/01/23 10:21:54;;;;;;;10.30;8.18;;;;;;;-2.03;71.53;100916.39;1795762;79;21552;-67
2022/01/23 10:24:20;;;;;;;10.93;9.60;;;;;;;-2.09;72.28;100926.74;1784116;79;21031;-65
2022/01/23 10:26:55;;;;;;;11.97;9.33;;;;;;;-2.11;72.30;100932.97;1757946;79;21019;-66
2022/01/23 10:29:26;;;;;;;11.40;9.33;;;;;;;-2.09;72.29;100936.33;1783882;79;21500;-69
2022/01/23 10:32:18;;;;;;;9.77;7.57;;;;;;;-2.11;72.33;100944.72;1782749;79;21133;-72
2022/01/23 10:34:57;;;;;;;9.47;7.03;;;;;;;-2.18;72.22;100945.57;1728023;81;20952;-72
2022/01/23 10:37:40;;;;;;;9.73;7.73;;;;;;;-2.21;72.20;100950.49;1778918;79;21008;-63
2022/01/23 10:40:26;;;;;;;12.03;7.40;;;;;;;-2.24;72.27;100957.66;1757522;80;21375;-62
2022/01/23 10:48:45;;;;;;;12.03;9.13;;;;;;;-2.39;72.14;100953.73;1760941;80;21037;-64
2022/01/23 10:51:30;;;;;;;9.60;7.97;;;;;;;-2.34;71.99;100970.42;1763023;80;21053;-68
2022/01/23 10:54:13;;;;;;;10.47;8.57;;;;;;;-2.32;72.79;100977.70;1766812;80;21059;-66
2022/01/23 10:57:03;;;;;;;10.63;7.57;;;;;;;-2.26;72.53;100981.28;1780180;79;21024;-65
2022/01/23 10:59:48;;;;;;;17.93;13.63;;;;;;;-2.16;72.39;100992.03;1755347;80;21016;-63
2022/01/23 11:02:21;;;;;;;17.53;12.97;;;;;;;-2.09;71.96;100989.87;1759624;79;21009;-64
2022/01/23 11:05:04;;;;;;;29.03;19.90;;;;;;;-2.10;71.81;101002.58;1744738;80;21053;-64
2022/01/23 11:07:33;;;;;;;28.93;19.70;;;;;;;-2.13;72.14;100998.36;1771278;79;21484;-64
2022/01/23 11:10:16;;;;;;;30.80;20.90;;;;;;;-2.12;72.51;100997.91;1761514;79;21148;-64
2022/01/23 11:18:14;;;;;;;12.70;9.27;;;;;;;-2.03;72.37;101018.27;1775487;79;21089;-65
2022/01/23 11:20:46;;;;;;;12.87;7.73;;;;;;;-2.05;72.36;101017.53;1770974;79;20965;-65
2022/01/23 11:23:28;;;;;;;11.60;8.53;;;;;;;-2.05;71.98;101022.75;1771206;79;21516;-64
2022/01/23 11:26:00;;;;;;;12.47;9.17;;;;;;;-2.06;71.91;101026.28;1771644;79;21060;-68
2022/01/23 11:28:39;;;;;;;13.60;9.90;;;;;;;-2.17;71.64;101019.06;1775636;79;21013;-67
2022/01/23 11:31:16;;;;;;;11.87;9.73;;;;;;;-2.16;71.78;101035.95;1777094;79;21049;-64
2022/01/23 11:33:43;;;;;;;;;;;;;;;-2.16;71.83;101042.95;1772159;79;20997;-64
2022/01/23 11:36:09;;;;;;;11.07;8.50;;;;;;;-2.14;71.08;101046.80;1764519;79;20147;-66
2022/01/23 11:38:37;;;;;;;10.13;7.83;;;;;;;-2.20;70.40;101052.73;1764855;79;20962;-66
2022/01/23 11:55:28;;;;;;;11.63;10.00;;;;;;;-2.48;71.40;101094.41;1755969;79;21104;-64
2022/01/23 11:57:55;;;;;;;8.00;7.10;;;;;;;-2.52;70.78;101098.96;1761814;79;20956;-64
2022/01/23 12:00:31;;;;;;;;;;;;;;;-2.55;70.23;101088.20;1768717;79;21534;-63
2022/01/23 12:03:18;;;;;;;14.90;11.37;;;;;;;-2.61;70.63;101109.91;1763940;79;20125;-63
2022/01/23 12:05:48;;;;;;;10.30;8.23;;;;;;;-2.69;70.86;101103.80;1731935;81;21039;-65
2022/01/23 12:08:33;;;;;;;9.30;7.33;;;;;;;-2.67;70.56;101096.73;1702087;82;21053;-64
2022/01/23 12:11:56;;;;;;;10.63;8.30;;;;;;;-2.68;70.27;101104.16;1698955;83;22035;-65
2022/01/23 12:18:50;;;;;;;11.50;8.97;;;;;;;-2.58;69.69;101119.72;1731143;81;21066;-63
2022/01/23 12:21:30;;;;;;;9.53;7.60;;;;;;;-2.58;69.26;101121.47;1731580;81;21062;-67
2022/01/23 12:24:03;;;;;;;8.73;6.90;;;;;;;-2.66;69.34;101130.19;1775518;79;21080;-66
2022/01/23 12:26:30;;;;;;;10.83;8.33;;;;;;;-2.72;69.44;101136.58;1782491;79;21037;-64
2022/01/23 12:29:12;;;;;;;10.53;9.43;;;;;;;-2.68;69.77;101139.88;1780309;80;21046;-61
2022/01/23 12:31:39;;;;;;;9.50;8.47;;;;;;;-2.64;69.96;101145.30;1771845;80;21014;-63
2022/01/23 12:34:06;;;;;;;8.67;7.87;;;;;;;-2.56;69.30;101144.44;1769900;80;20981;-63
2022/01/23 12:36:37;;;;;;;8.10;7.30;;;;;;;-2.50;69.70;101151.09;1764325;80;20997;-63
2022/01/23 12:39:13;;;;;;;10.03;7.97;;;;;;;-2.48;69.50;101157.90;1771742;80;21037;-65
2022/01/23 12:41:43;;;;;;;11.67;8.37;;;;;;;-2.44;69.15;101160.72;1773697;80;20966;-64
2022/01/23 12:44:27;;;;;;;14.37;8.97;;;;;;;-2.47;68.63;101174.40;1772651;80;21101;-66
2022/01/23 12:47:01;;;;;;;10.70;7.97;;;;;;;-2.55;68.79;101176.95;1757484;80;21060;-64
2022/01/23 12:49:31;;;;;;;10.30;8.67;;;;;;;-2.57;68.59;101176.20;1767997;80;20985;-63
2022/01/23 12:52:09;;;;;;;15.17;12.60;;;;;;;-2.55;68.58;101203.53;1758054;80;21044;-66
2022/01/23 12:54:56;;;;;;;10.70;9.60;;;;;;;-2.56;68.64;101194.03;1790992;79;20988;-64
2022/01/23 12:57:38;;;;;;;14.30;10.73;;;;;;;-2.62;68.89;101199.13;1781988;78;20983;-64
2022/01/23 13:00:23;;;;;;;16.03;11.10;;;;;;;-2.66;69.38;101201.48;1756001;81;21570;-65
2022/01/23 13:02:49;;;;;;;14.23;9.73;;;;;;;-2.67;69.53;101203.73;1758146;80;21076;-64
2022/01/23 13:05:16;;;;;;;11.37;8.67;;;;;;;-2.63;69.71;101206.55;1771113;80;21021;-64
2022/01/23 13:08:02;;;;;;;11.00;8.60;;;;;;;-2.57;69.53;101205.39;1767431;80;21074;-63
2022/01/23 13:10:37;;;;;;;11.63;9.53;;;;;;;-2.53;69.37;101217.34;1764081;80;21028;-65
2022/01/23 13:15:42;;;;;;;;;;;;;;;-2.44;69.25;101223.84;1779935;79;21053;-63
2022/01/23 13:32:18;;;;;;;13.83;9.23;;;;;;;-2.48;68.99;101265.41;1779127;79;21477;-65
2022/01/23 13:34:57;;;;;;;13.83;10.57;;;;;;;-2.54;69.73;101262.66;1768037;80;21571;-65
2022/01/23 13:37:27;;;;;;;12.20;9.93;;;;;;;-2.59;69.70;101268.58;1787493;80;21078;-64
2022/01/23 13:40:23;;;;;;;13.70;10.23;;;;;;;-2.61;69.45;101276.48;1753120;80;21019;-67
2022/01/23 14:02:20;;;;;;;14.90;10.13;;;;;;;-2.84;69.83;101319.91;1763242;80;22350;-62
2022/01/23 14:04:57;;;;;;;17.20;10.10;;;;;;;-2.87;70.14;101320.88;1773421;80;21013;-65
2022/01/23 14:07:27;;;;;;;12.87;8.60;;;;;;;-2.86;70.19;101326.94;1771185;80;21524;-66
2022/01/23 14:10:20;;;;;;;15.23;10.17;;;;;;;-2.86;70.29;101324.33;1760684;80;20990;-68
2022/01/23 14:12:51;;;;;;;13.73;9.13;;;;;;;-2.89;70.42;101325.34;1766737;79;21119;-66
2022/01/23 14:15:22;;;;;;;8.70;7.80;;;;;;;-2.90;70.32;101333.23;1772325;80;21510;-63
2022/01/23 14:18:10;;;;;;;11.27;8.83;;;;;;;-2.86;70.06;101330.85;1770345;80;20998;-63
2022/01/23 14:20:41;;;;;;;8.57;7.33;;;;;;;-2.82;70.15;101333.72;1771540;80;21037;-62
2022/01/23 14:23:20;;;;;;;12.23;8.80;;;;;;;-2.79;69.83;101324.41;1757957;80;20989;-64
2022/01/23 14:25:49;;;;;;;;;;;;;;;-2.72;69.57;101333.62;1762269;80;21133;-66
2022/01/23 14:28:28;;;;;;;15.60;8.70;;;;;;;-2.78;69.50;101333.47;1774347;80;20134;-64
2022/01/23 14:30:59;;;;;;;10.07;8.53;;;;;;;-2.89;69.82;101329.25;1769744;80;21037;-63
2022/01/23 14:33:34;;;;;;;12.13;8.57;;;;;;;-2.90;69.75;101330.19;1766861;79;21001;-64
2022/01/23 14:36:20;;;;;;;12.03;8.70;;;;;;;-2.87;69.63;101337.01;1774932;80;21012;-67
2022/01/23 14:38:59;;;;;;;10.80;8.00;;;;;;;-2.82;69.53;101340.23;1769569;80;21041;-65
2022/01/23 14:41:30;;;;;;;10.23;8.63;;;;;;;-2.81;69.58;101349.73;1756573;80;21066;-61
2022/01/23 14:43:57;;;;;;;9.80;8.00;;;;;;;-2.78;69.63;101349.59;1752864;80;21092;-65
2022/01/23 14:46:24;;;;;;;10.40;8.37;;;;;;;-2.74;69.41;101348.52;1789025;80;21105;-62
2022/01/23 14:48:56;;;;;;;11.97;9.18;;;;;;;-2.71;69.44;101364.03;1771000;80;21096;-65
2022/01/23 14:51:23;;;;;;;12.07;8.23;;;;;;;-2.68;69.15;101361.24;1770880;80;21029;-65
2022/01/23 14:53:50;;;;;;;14.33;8.73;;;;;;;-2.69;69.08;101370.02;1781708;79;20993;-68
2022/01/23 14:56:19;;;;;;;11.60;10.20;;;;;;;-2.72;69.17;101366.70;1780241;79;21336;-64
2022/01/23 14:58:47;;;;;;;10.13;8.70;;;;;;;-2.74;69.22;101369.39;1763441;80;21038;-67
2022/01/23 15:01:16;;;;;;;11.83;7.57;;;;;;;-3.22;69.46;101302.64;1769234;80;21048;-67
2022/01/23 15:03:52;;;;;;;8.43;7.47;;;;;;;-2.79;69.50;101367.03;1770606;80;21109;-65